createdAt,value
2022-11-24T00:00:31.480Z,3.10
2022-11-24T00:02:58.320Z,3.10
2022-11-24T00:05:25.101Z,3.10
2022-11-24T00:07:51.872Z,3.10
2022-11-24T00:10:18.719Z,3.10
2022-11-24T00:12:45.392Z,3.20
2022-11-24T00:15:12.087Z,3.20
2022-11-24T00:17:38.747Z,3.20
2022-11-24T00:20:06.101Z,3.30
2022-11-24T00:22:32.700Z,3.30
2022-11-24T00:24:59.391Z,3.30
2022-11-24T00:27:26.091Z,3.30
2022-11-24T00:29:52.920Z,3.40
2022-11-24T00:32:19.623Z,3.40
2022-11-24T00:34:47.265Z,3.40
2022-11-24T00:37:13.920Z,3.40
2022-11-24T00:39:40.600Z,3.40
2022-11-24T00:42:07.401Z,3.40
2022-11-24T00:44:34.307Z,3.40
2022-11-24T00:47:01.221Z,3.40
2022-11-24T00:49:27.939Z,3.40
2022-11-24T00:51:54.635Z,3.40
2022-11-24T00:54:21.472Z,3.40
2022-11-24T00:56:48.155Z,3.40
2022-11-24T00:59:14.978Z,3.40
2022-11-24T01:01:42.666Z,3.40
2022-11-24T01:04:09.505Z,3.40
2022-11-24T01:06:36.676Z,3.40
2022-11-24T01:09:04.239Z,3.30
2022-11-24T01:11:53.400Z,3.30
2022-11-24T01:14:24.187Z,3.30
2022-11-24T01:16:51.349Z,3.20
2022-11-24T01:19:18.712Z,3.20
2022-11-24T01:21:45.446Z,3.30
2022-11-24T01:24:12.526Z,3.30
2022-11-24T01:26:39.858Z,3.30
2022-11-24T01:29:06.499Z,3.30
2022-11-24T01:31:33.210Z,3.30
2022-11-24T01:33:59.875Z,3.20
2022-11-24T01:36:26.577Z,3.20
2022-11-24T01:38:53.267Z,3.20
2022-11-24T01:41:25.505Z,3.20
2022-11-24T01:43:53.607Z,3.20
2022-11-24T01:46:36.212Z,3.30
2022-11-24T01:49:08.940Z,3.30
2022-11-24T01:51:43.508Z,3.30
2022-11-24T01:54:19.917Z,3.30
2022-11-24T01:56:51.456Z,3.30
2022-11-24T01:59:20.975Z,3.30
2022-11-24T02:01:50.288Z,3.30
2022-11-24T02:04:23.803Z,3.30
2022-11-24T02:06:52.081Z,3.40
2022-11-24T02:09:45.534Z,3.30
2022-11-24T02:12:12.638Z,3.30
2022-11-24T02:14:41.844Z,3.20
2022-11-24T02:17:08.645Z,3.30
2022-11-24T02:19:41.377Z,3.20
2022-11-24T02:22:15.858Z,3.20
2022-11-24T02:24:54.648Z,3.20
2022-11-24T02:27:21.340Z,3.20
2022-11-24T02:29:49.072Z,3.30
2022-11-24T02:32:16.290Z,3.30
2022-11-24T02:34:42.936Z,3.30
2022-11-24T02:37:09.751Z,3.30
2022-11-24T02:39:36.421Z,3.20
2022-11-24T02:42:12.922Z,3.20
2022-11-24T02:44:45.237Z,3.30
2022-11-24T02:47:13.090Z,3.30
2022-11-24T02:49:40.552Z,2.90
2022-11-24T02:52:07.261Z,3.20
2022-11-24T02:54:34.346Z,3.30
2022-11-24T02:57:01.419Z,3.30
2022-11-24T02:59:28.341Z,3.40
2022-11-24T03:01:55.067Z,3.40
2022-11-24T03:04:21.776Z,3.40
2022-11-24T03:06:48.885Z,3.30
2022-11-24T03:09:15.605Z,3.30
2022-11-24T03:11:42.363Z,3.40
2022-11-24T03:14:09.289Z,3.30
2022-11-24T03:16:35.954Z,3.30
2022-11-24T03:19:03.305Z,3.30
2022-11-24T03:21:29.933Z,3.30
2022-11-24T03:23:56.719Z,3.30
2022-11-24T03:26:25.357Z,3.30
2022-11-24T03:28:55.413Z,3.30
2022-11-24T03:31:23.449Z,3.30
2022-11-24T03:33:50.208Z,3.30
2022-11-24T03:36:17.158Z,3.30
2022-11-24T03:38:44.480Z,3.30
2022-11-24T03:41:11.263Z,3.30
2022-11-24T03:43:43.240Z,3.40
2022-11-24T03:46:11.395Z,3.40
2022-11-24T03:48:38.267Z,3.40
2022-11-24T03:51:05.112Z,3.50
2022-11-24T03:53:33.505Z,3.50
2022-11-24T03:56:01.896Z,3.50
2022-11-24T03:58:29.253Z,3.50
2022-11-24T04:00:56.264Z,3.50
2022-11-24T04:03:23.656Z,3.50
2022-11-24T04:05:50.304Z,3.50
2022-11-24T04:08:17.460Z,3.50
2022-11-24T04:10:44.320Z,3.50
2022-11-24T04:13:14.226Z,3.50
2022-11-24T04:15:42.289Z,3.50
2022-11-24T04:18:10.300Z,3.50
2022-11-24T04:20:37.188Z,3.50
2022-11-24T04:23:03.991Z,3.50
2022-11-24T04:25:30.667Z,3.50
2022-11-24T04:27:57.547Z,3.50
2022-11-24T04:30:26.277Z,3.50
2022-11-24T04:32:53.677Z,3.50
2022-11-24T04:35:20.644Z,3.50
2022-11-24T04:37:49.291Z,3.50
2022-11-24T04:40:16.370Z,3.50
2022-11-24T04:42:43.015Z,3.50
2022-11-24T04:45:11.340Z,3.50
2022-11-24T04:47:38.347Z,3.50
2022-11-24T04:50:07.615Z,3.50
2022-11-24T04:52:34.347Z,3.50
2022-11-24T04:55:01.428Z,3.50
2022-11-24T04:57:28.261Z,3.40
2022-11-24T04:59:55.397Z,3.50
2022-11-24T05:02:23.114Z,3.40
2022-11-24T05:04:50.007Z,3.40
2022-11-24T05:07:19.357Z,3.40
2022-11-24T05:10:05.803Z,3.30
2022-11-24T05:12:32.521Z,3.30
2022-11-24T05:15:03.954Z,3.40
2022-11-24T05:17:32.358Z,3.30
2022-11-24T05:19:59.515Z,3.30
2022-11-24T05:22:28.031Z,3.30
2022-11-24T05:24:54.717Z,3.30
2022-11-24T05:27:21.632Z,3.20
2022-11-24T05:29:48.320Z,3.20
2022-11-24T05:32:15.102Z,3.30
2022-11-24T05:34:41.776Z,3.30
2022-11-24T05:37:08.915Z,3.30
2022-11-24T05:39:36.599Z,3.40
2022-11-24T05:42:25.160Z,3.40
2022-11-24T05:44:52.374Z,3.40
2022-11-24T05:47:19.524Z,3.40
2022-11-24T05:49:46.395Z,3.40
2022-11-24T05:52:13.453Z,3.40
2022-11-24T05:54:40.202Z,3.30
2022-11-24T05:57:06.999Z,3.30
2022-11-24T05:59:33.837Z,3.30
2022-11-24T06:02:00.812Z,3.30
2022-11-24T06:04:27.752Z,3.30
2022-11-24T06:06:54.520Z,3.30
2022-11-24T06:09:21.275Z,3.40
2022-11-24T06:11:48.749Z,3.40
2022-11-24T06:14:15.661Z,3.40
2022-11-24T06:16:42.422Z,3.50
2022-11-24T06:19:10.884Z,3.50
2022-11-24T06:21:37.809Z,3.60
2022-11-24T06:24:05.288Z,3.70
2022-11-24T06:26:32.073Z,3.60
2022-11-24T06:28:58.944Z,3.50
2022-11-24T06:31:25.741Z,3.50
2022-11-24T06:33:53.171Z,3.40
2022-11-24T06:36:19.792Z,3.40
2022-11-24T06:38:46.515Z,3.40
2022-11-24T06:41:15.515Z,3.40
2022-11-24T06:43:42.241Z,3.40
2022-11-24T06:46:09.024Z,3.40
2022-11-24T06:48:36.292Z,3.40
2022-11-24T06:51:05.442Z,3.50
2022-11-24T06:53:39.978Z,3.50
2022-11-24T06:56:16.365Z,3.50
2022-11-24T06:58:48.873Z,3.50
2022-11-24T07:01:17.709Z,3.50
2022-11-24T07:03:45.149Z,3.50
2022-11-24T07:06:11.910Z,3.50
2022-11-24T07:08:38.664Z,3.50
2022-11-24T07:11:10.236Z,3.50
2022-11-24T07:13:37.046Z,3.50
2022-11-24T07:16:15.254Z,3.60
2022-11-24T07:18:43.891Z,3.60
2022-11-24T07:21:11.005Z,3.50
2022-11-24T07:23:38.296Z,3.60
2022-11-24T07:26:07.092Z,3.60
2022-11-24T07:28:34.717Z,3.60
2022-11-24T07:31:15.243Z,3.70
2022-11-24T07:33:42.186Z,3.80
2022-11-24T07:36:09.456Z,3.70
2022-11-24T07:38:36.187Z,3.70
2022-11-24T07:41:05.567Z,3.80
2022-11-24T07:43:33.417Z,3.70
2022-11-24T07:46:00.605Z,3.70
2022-11-24T07:48:27.738Z,3.80
2022-11-24T07:50:56.255Z,3.80
2022-11-24T07:53:23.209Z,3.90
2022-11-24T07:55:54.645Z,3.90
2022-11-24T07:58:21.897Z,4.00
2022-11-24T08:00:48.865Z,4.00
2022-11-24T08:03:15.967Z,4.00
2022-11-24T08:06:07.704Z,4.00
2022-11-24T08:08:33.266Z,3.90
2022-11-24T08:11:04.939Z,3.90
2022-11-24T08:13:31.644Z,3.80
2022-11-24T08:15:58.306Z,3.90
2022-11-24T08:18:25.179Z,4.00
2022-11-24T08:20:52.645Z,4.00
2022-11-24T08:23:19.354Z,4.10
2022-11-24T08:25:46.048Z,4.20
2022-11-24T08:28:12.701Z,4.30
2022-11-24T08:30:39.395Z,4.30
2022-11-24T08:33:06.062Z,4.30
2022-11-24T08:35:36.886Z,4.30
2022-11-24T08:38:05.006Z,4.40
2022-11-24T08:40:32.490Z,4.60
2022-11-24T08:42:59.695Z,4.70
2022-11-24T08:45:30.521Z,4.80
2022-11-24T08:47:58.058Z,5.00
2022-11-24T08:50:25.497Z,5.10
2022-11-24T08:52:53.367Z,5.10
2022-11-24T08:55:20.493Z,5.30
2022-11-24T08:57:47.219Z,5.30
2022-11-24T09:00:14.408Z,5.50
2022-11-24T09:02:42.823Z,5.80
2022-11-24T09:05:28.759Z,6.00
2022-11-24T09:07:56.240Z,6.20
2022-11-24T09:10:22.976Z,6.50
2022-11-24T09:12:51.176Z,6.40
2022-11-24T09:15:20.116Z,6.40
2022-11-24T09:17:46.759Z,6.30
2022-11-24T09:20:13.450Z,6.40
2022-11-24T09:22:41.642Z,6.60
2022-11-24T09:25:09.032Z,6.80
2022-11-24T09:27:36.203Z,6.80
2022-11-24T09:30:03.777Z,6.60
2022-11-24T09:32:30.776Z,6.50
2022-11-24T09:34:57.595Z,6.40
2022-11-24T09:37:28.129Z,6.40
2022-11-24T09:39:56.342Z,6.20
2022-11-24T09:43:02.592Z,6.20
2022-11-24T09:46:09.386Z,6.20
2022-11-24T09:48:46.302Z,6.20
2022-11-24T09:51:14.978Z,6.40
2022-11-24T09:53:51.828Z,6.20
2022-11-24T09:56:22.427Z,6.40
2022-11-24T09:59:13.274Z,6.40
2022-11-24T10:01:42.655Z,6.40
2022-11-24T10:04:22.597Z,6.10
2022-11-24T10:07:08.655Z,6.20
2022-11-24T10:10:09.786Z,6.30
2022-11-24T10:13:01.408Z,6.30
2022-11-24T10:16:07.772Z,6.30
2022-11-24T10:18:37.574Z,6.30
2022-11-24T10:21:17.928Z,6.30
2022-11-24T10:24:08.901Z,6.20
2022-11-24T10:26:36.722Z,6.30
2022-11-24T10:29:21.348Z,6.40
2022-11-24T10:31:50.746Z,6.60
2022-11-24T10:34:29.918Z,6.90
2022-11-24T10:37:11.830Z,7.00
2022-11-24T10:39:59.907Z,7.00
2022-11-24T10:42:31.562Z,6.80
2022-11-24T10:45:12.712Z,6.80
2022-11-24T10:47:40.554Z,6.90
2022-11-24T10:50:27.005Z,7.20
2022-11-24T10:53:07.120Z,7.20
2022-11-24T10:55:58.599Z,7.20
2022-11-24T10:58:27.005Z,7.40
2022-11-24T11:00:55.576Z,7.50
2022-11-24T11:03:25.210Z,7.60
2022-11-24T11:06:11.371Z,7.60
2022-11-24T11:08:38.534Z,7.50
2022-11-24T11:11:22.193Z,7.40
2022-11-24T11:14:01.509Z,7.10
2022-11-24T11:16:40.986Z,6.90
2022-11-24T11:19:54.104Z,6.90
2022-11-24T11:22:31.605Z,6.80
2022-11-24T11:25:43.560Z,6.70
2022-11-24T11:28:27.727Z,6.80
2022-11-24T11:31:20.991Z,6.80
2022-11-24T11:34:07.320Z,6.80
2022-11-24T11:36:51.236Z,6.80
2022-11-24T11:39:26.532Z,6.70
2022-11-24T11:42:38.028Z,6.50
2022-11-24T11:45:18.367Z,6.40
2022-11-24T11:48:05.444Z,6.20
2022-11-24T11:54:26.783Z,6.10
2022-11-24T11:57:07.950Z,6.00
2022-11-24T11:59:34.592Z,6.00
2022-11-24T12:02:38.165Z,6.00
2022-11-24T12:05:42.935Z,6.00
2022-11-24T12:08:55.904Z,6.10
2022-11-24T12:11:35.152Z,6.10
2022-11-24T12:14:01.767Z,5.90
2022-11-24T12:16:45.398Z,5.90
2022-11-24T12:19:29.271Z,5.90
2022-11-24T12:22:21.714Z,5.90
2022-11-24T12:25:02.478Z,5.90
2022-11-24T12:28:00.926Z,5.90
2022-11-24T12:30:37.877Z,6.00
2022-11-24T12:33:29.231Z,6.00
2022-11-24T12:36:23.852Z,6.10
2022-11-24T12:39:06.499Z,6.20
2022-11-24T12:42:09.697Z,6.20
2022-11-24T12:45:13.189Z,6.20
2022-11-24T12:48:03.621Z,6.20
2022-11-24T12:50:33.032Z,6.20
2022-11-24T12:53:05.636Z,6.10
2022-11-24T12:55:33.984Z,6.10
2022-11-24T12:58:13.537Z,6.20
2022-11-24T13:00:52.805Z,6.20
2022-11-24T13:03:22.236Z,6.30
2022-11-24T13:06:18.168Z,6.30
2022-11-24T13:08:45.453Z,6.40
2022-11-24T13:11:21.078Z,6.40
2022-11-24T13:13:59.823Z,6.40
2022-11-24T13:16:36.089Z,6.30
2022-11-24T13:19:14.691Z,6.30
2022-11-24T13:21:45.428Z,6.30
2022-11-24T13:24:19.331Z,6.30
2022-11-24T13:26:49.829Z,6.40
2022-11-24T13:29:33.295Z,6.50
2022-11-24T13:32:02.796Z,6.50
2022-11-24T13:34:45.583Z,6.40
2022-11-24T13:37:34.948Z,6.30
2022-11-24T13:40:22.444Z,6.20
2022-11-24T13:42:54.910Z,6.30
2022-11-24T13:45:45.143Z,6.30
2022-11-24T13:48:21.647Z,6.40
2022-11-24T13:50:53.113Z,6.40
2022-11-24T13:53:38.337Z,6.40
2022-11-24T13:56:25.204Z,6.40
2022-11-24T13:59:00.459Z,6.50
2022-11-24T14:01:36.596Z,6.50
2022-11-24T14:04:31.403Z,6.50
2022-11-24T14:07:07.299Z,6.50
2022-11-24T14:09:47.110Z,6.60
2022-11-24T14:12:24.552Z,6.60
2022-11-24T14:14:55.590Z,6.60
2022-11-24T14:17:31.349Z,6.60
2022-11-24T14:19:58.559Z,6.60
2022-11-24T14:22:36.596Z,6.50
2022-11-24T14:25:03.728Z,6.50
2022-11-24T14:27:37.503Z,6.40
2022-11-24T14:30:25.068Z,6.30
2022-11-24T14:32:55.860Z,6.20
2022-11-24T14:35:36.132Z,6.10
2022-11-24T14:38:05.214Z,6.20
2022-11-24T14:40:50.387Z,6.30
2022-11-24T14:43:35.242Z,6.40
2022-11-24T14:46:12.187Z,6.40
2022-11-24T14:48:47.445Z,6.40
2022-11-24T14:51:24.639Z,6.30
2022-11-24T14:53:53.545Z,6.20
2022-11-24T14:56:40.424Z,6.10
2022-11-24T14:59:25.890Z,6.10
2022-11-24T15:01:52.792Z,6.00
2022-11-24T15:05:00.842Z,5.90
2022-11-24T15:07:27.261Z,5.90
2022-11-24T15:09:57.883Z,5.90
2022-11-24T15:12:34.734Z,5.90
2022-11-24T15:15:05.644Z,6.00
2022-11-24T15:17:32.831Z,6.00
2022-11-24T15:20:10.499Z,5.90
2022-11-24T15:22:42.192Z,5.80
2022-11-24T15:25:34.955Z,5.80
2022-11-24T15:28:01.812Z,5.80
2022-11-24T15:30:29.294Z,5.70
2022-11-24T15:32:58.108Z,5.70
2022-11-24T15:35:28.469Z,5.60
2022-11-24T15:37:55.241Z,5.50
2022-11-24T15:40:22.074Z,5.50
2022-11-24T15:42:54.033Z,5.50
2022-11-24T15:45:23.170Z,5.50
2022-11-24T15:47:50.163Z,5.50
2022-11-24T15:50:17.029Z,5.40
2022-11-24T15:52:45.051Z,5.40
2022-11-24T15:55:22.292Z,5.40
2022-11-24T15:57:49.714Z,5.40
2022-11-24T16:00:19.551Z,5.40
2022-11-24T16:02:46.424Z,5.40
2022-11-24T16:05:13.957Z,5.40
2022-11-24T16:07:40.978Z,5.40
2022-11-24T16:10:24.618Z,5.30
2022-11-24T16:12:51.336Z,5.30
2022-11-24T16:15:18.024Z,5.30
2022-11-24T16:17:44.724Z,5.30
2022-11-24T16:20:11.560Z,5.20
2022-11-24T16:22:38.293Z,5.20
2022-11-24T16:25:05.709Z,5.30
2022-11-24T16:27:32.294Z,5.20
2022-11-24T16:29:59.003Z,5.10
2022-11-24T16:32:25.705Z,5.10
2022-11-24T16:34:52.392Z,5.00
2022-11-24T16:37:20.945Z,5.00
2022-11-24T16:39:50.157Z,5.00
2022-11-24T16:42:17.438Z,5.00
2022-11-24T16:44:44.104Z,5.00
2022-11-24T16:47:12.796Z,5.00
2022-11-24T16:49:39.649Z,5.10
2022-11-24T16:52:06.680Z,5.10
2022-11-24T16:54:33.667Z,5.00
2022-11-24T16:57:00.437Z,5.00
2022-11-24T16:59:27.079Z,4.90
2022-11-24T17:01:54.073Z,4.70
2022-11-24T17:04:20.903Z,4.70
2022-11-24T17:06:47.556Z,4.70
2022-11-24T17:09:14.224Z,4.70
2022-11-24T17:11:41.219Z,4.70
2022-11-24T17:14:09.411Z,4.70
2022-11-24T17:16:37.587Z,4.60
2022-11-24T17:19:05.504Z,4.60
2022-11-24T17:21:32.897Z,4.50
2022-11-24T17:24:00.731Z,4.50
2022-11-24T17:26:28.219Z,4.50
2022-11-24T17:28:56.032Z,4.40
2022-11-24T17:31:41.030Z,4.40
2022-11-24T17:34:09.488Z,4.30
2022-11-24T17:36:36.243Z,4.30
2022-11-24T17:39:04.973Z,4.30
2022-11-24T17:41:32.681Z,4.30
2022-11-24T17:43:59.595Z,4.30
2022-11-24T17:46:27.860Z,4.30
2022-11-24T17:48:54.931Z,4.30
2022-11-24T17:51:23.455Z,4.10
2022-11-24T17:53:52.156Z,4.10
2022-11-24T17:56:24.741Z,4.00
2022-11-24T17:58:59.464Z,4.00
2022-11-24T18:01:28.447Z,4.00
2022-11-24T18:03:57.888Z,3.90
2022-11-24T18:06:28.639Z,3.90
2022-11-24T18:08:57.332Z,3.90
2022-11-24T18:11:30.889Z,3.90
2022-11-24T18:14:01.602Z,3.80
2022-11-24T18:16:30.972Z,3.80
2022-11-24T18:19:14.637Z,3.90
2022-11-24T18:21:43.521Z,4.00
2022-11-24T18:24:11.780Z,4.10
2022-11-24T18:26:39.916Z,4.10
2022-11-24T18:29:07.159Z,4.10
2022-11-24T18:31:35.630Z,4.20
2022-11-24T18:34:04.199Z,4.20
2022-11-24T18:36:31.761Z,4.10
2022-11-24T18:39:02.826Z,4.10
2022-11-24T18:41:29.511Z,4.20
2022-11-24T18:43:56.229Z,4.10
2022-11-24T18:46:22.986Z,4.10
2022-11-24T18:48:51.925Z,4.10
2022-11-24T18:51:18.858Z,4.10
2022-11-24T18:53:46.588Z,4.10
2022-11-24T18:56:15.915Z,4.10
2022-11-24T18:58:43.245Z,4.10
2022-11-24T19:01:16.149Z,4.20
2022-11-24T19:03:48.620Z,4.20
2022-11-24T19:06:36.181Z,4.20
2022-11-24T19:09:06.594Z,4.10
2022-11-24T19:11:37.030Z,4.20
2022-11-24T19:14:06.131Z,4.10
2022-11-24T19:16:33.349Z,4.10
2022-11-24T19:19:01.616Z,4.10
2022-11-24T19:21:32.810Z,4.20
2022-11-24T19:24:04.507Z,4.20
2022-11-24T19:26:32.471Z,4.20
2022-11-24T19:28:59.150Z,4.20
2022-11-24T19:31:25.889Z,4.20
2022-11-24T19:33:54.527Z,4.20
2022-11-24T19:36:22.112Z,4.20
2022-11-24T19:38:54.277Z,4.20
2022-11-24T19:41:23.822Z,4.20
2022-11-24T19:43:53.308Z,4.10
2022-11-24T19:46:20.628Z,4.00
2022-11-24T19:48:50.104Z,4.00
2022-11-24T19:51:22.579Z,3.90
2022-11-24T19:53:49.309Z,3.80
2022-11-24T19:56:24.117Z,3.70
2022-11-24T19:58:52.106Z,3.70
2022-11-24T20:01:26.602Z,3.60
2022-11-24T20:03:58.892Z,3.60
2022-11-24T20:06:28.026Z,3.60
2022-11-24T20:08:55.128Z,3.70
2022-11-24T20:11:22.386Z,3.70
2022-11-24T20:13:50.059Z,3.80
2022-11-24T20:16:19.744Z,3.80
2022-11-24T20:18:47.622Z,3.90
2022-11-24T20:21:18.088Z,3.90
2022-11-24T20:23:46.735Z,3.90
2022-11-24T20:26:16.378Z,3.90
2022-11-24T20:28:43.445Z,3.90
2022-11-24T20:31:13.523Z,3.90
2022-11-24T20:33:41.140Z,3.90
2022-11-24T20:36:13.298Z,3.80
2022-11-24T20:38:41.259Z,3.60
2022-11-24T20:41:16.732Z,3.60
2022-11-24T20:43:44.851Z,3.50
2022-11-24T20:46:23.947Z,3.50
2022-11-24T20:48:51.313Z,3.40
2022-11-24T20:51:21.348Z,3.40
2022-11-24T20:53:49.744Z,3.30
2022-11-24T20:56:19.370Z,3.30
2022-11-24T20:58:46.649Z,3.30
2022-11-24T21:01:35.579Z,3.30
2022-11-24T21:04:03.136Z,3.30
2022-11-24T21:06:30.640Z,3.30
2022-11-24T21:09:03.501Z,3.40
2022-11-24T21:11:31.360Z,3.40
2022-11-24T21:13:58.517Z,3.40
2022-11-24T21:16:31.198Z,3.50
2022-11-24T21:19:01.095Z,3.50
2022-11-24T21:21:33.928Z,3.40
2022-11-24T21:24:05.632Z,3.50
2022-11-24T21:26:36.752Z,3.50
2022-11-24T21:29:04.431Z,3.50
2022-11-24T21:31:31.147Z,3.60
2022-11-24T21:33:57.835Z,3.50
2022-11-24T21:36:26.412Z,3.60
2022-11-24T21:38:55.437Z,3.70
2022-11-24T21:41:23.558Z,3.70
2022-11-24T21:43:51.566Z,3.80
2022-11-24T21:46:18.530Z,3.90
2022-11-24T21:48:45.461Z,3.80
2022-11-24T21:51:16.140Z,3.90
2022-11-24T21:53:43.662Z,4.00
2022-11-24T21:56:16.919Z,4.00
2022-11-24T21:58:45.895Z,4.00
2022-11-24T22:01:14.048Z,4.00
2022-11-24T22:03:40.740Z,4.00
2022-11-24T22:06:07.827Z,4.00
2022-11-24T22:08:34.952Z,4.00
2022-11-24T22:11:04.179Z,4.00
2022-11-24T22:13:31.195Z,4.00
2022-11-24T22:16:13.125Z,4.00
2022-11-24T22:18:41.444Z,3.90
2022-11-24T22:21:14.349Z,4.00
2022-11-24T22:23:41.761Z,4.00
2022-11-24T22:26:08.389Z,4.00
2022-11-24T22:28:36.679Z,3.90
2022-11-24T22:31:08.065Z,3.90
2022-11-24T22:33:35.040Z,3.50
2022-11-24T22:36:02.401Z,3.80
2022-11-24T22:38:29.543Z,3.80
2022-11-24T22:41:08.430Z,3.80
2022-11-24T22:43:36.782Z,3.80
2022-11-24T22:46:18.086Z,3.80
2022-11-24T22:48:46.511Z,3.70
2022-11-24T22:51:15.657Z,3.70
2022-11-24T22:53:50.837Z,3.70
2022-11-24T22:56:18.167Z,3.70
2022-11-24T22:58:45.185Z,3.70
2022-11-24T23:01:22.982Z,3.70
2022-11-24T23:03:50.799Z,3.80
2022-11-24T23:06:32.276Z,3.80
2022-11-24T23:09:00.771Z,3.80
2022-11-24T23:11:37.755Z,3.80
2022-11-24T23:14:07.285Z,3.80
2022-11-24T23:16:34.172Z,3.80
2022-11-24T23:19:00.932Z,3.70
2022-11-24T23:21:30.071Z,3.70
2022-11-24T23:23:58.944Z,3.70
2022-11-24T23:26:34.932Z,3.70
2022-11-24T23:29:02.032Z,3.60
2022-11-24T23:31:29.212Z,3.60
2022-11-24T23:33:59.132Z,3.60
2022-11-24T23:36:26.892Z,3.60
2022-11-24T23:38:54.358Z,3.50
2022-11-24T23:41:25.220Z,3.50
2022-11-24T23:43:52.572Z,3.50
2022-11-24T23:46:22.984Z,3.40
2022-11-24T23:48:51.235Z,3.40
2022-11-24T23:51:20.645Z,3.50
2022-11-24T23:53:47.399Z,3.50
2022-11-24T23:56:19.423Z,3.50
2022-11-24T23:58:46.579Z,3.50
